Time;durP1;ratioP1;P1;durP2;ratioP2;P2;SDS_P1;SDS_P2;PMS_P1;PMS_P2;Temp;Humidity;BMP_temperature;BMP_pressure;BME280_temperature;BME280_humidity;BME280_pressure;Samples;Min_cycle;Max_cycle;Signal;HPM_P1;HPM_P2
2022/09/05 00:01:18;;;;;;;6.88;4.35;;;;;;;30.40;31.89;101917.50;5069847;28;20543;-70
2022/09/05 00:03:54;;;;;;;8.13;4.60;;;;;;;30.00;32.02;101918.72;5046646;28;20071;-70
2022/09/05 00:06:24;;;;;;;5.22;4.00;;;;;;;30.17;31.99;101917.47;5053744;28;20082;-70
2022/09/05 00:08:52;;;;;;;8.20;4.63;;;;;;;30.22;31.52;101917.94;5046318;28;20020;-70
2022/09/05 00:11:28;;;;;;;6.20;4.35;;;;;;;30.18;31.33;101919.16;5065243;28;20017;-70
2022/09/05 00:14:42;;;;;;;6.07;4.32;;;;;;;30.23;32.12;101916.97;5036526;28;20036;-70
2022/09/05 00:17:17;;;;;;;6.32;4.22;;;;;;;29.71;32.48;101915.53;5036162;28;20032;-70
2022/09/05 00:19:48;;;;;;;8.30;5.10;;;;;;;29.98;32.54;101909.03;5035558;28;20095;-70
2022/09/05 00:22:29;;;;;;;5.57;4.50;;;;;;;29.93;32.49;101910.25;5066232;28;20070;-70
2022/09/05 00:25:35;;;;;;;7.75;4.00;;;;;;;29.80;32.82;101914.84;5070480;28;20480;-70
2022/09/05 00:28:08;;;;;;;10.68;5.22;;;;;;;29.93;32.56;101915.63;5035822;28;20043;-70
2022/09/05 00:31:02;;;;;;;8.55;5.45;;;;;;;30.03;32.03;101912.25;5056994;28;20025;-70
2022/09/05 00:33:40;;;;;;;8.52;4.45;;;;;;;30.23;31.80;101906.19;5053229;28;20036;-70
2022/09/05 00:36:16;;;;;;;7.40;4.30;;;;;;;29.98;32.30;101911.75;5054247;28;20025;-70
2022/09/05 00:38:55;;;;;;;6.40;4.68;;;;;;;29.88;32.35;101909.75;5058751;28;20032;-70
2022/09/05 00:41:21;;;;;;;6.15;4.38;;;;;;;29.85;32.66;101906.44;5046279;28;20029;-70
2022/09/05 00:43:49;;;;;;;6.20;4.53;;;;;;;30.13;32.28;101905.19;5067488;28;20043;-70
2022/09/05 00:46:23;;;;;;;7.35;4.32;;;;;;;29.99;32.02;101900.00;5057939;28;20053;-70
2022/09/05 00:49:15;;;;;;;7.00;4.70;;;;;;;29.82;32.33;101902.09;5053671;28;20032;-70
2022/09/05 00:51:49;;;;;;;6.63;5.13;;;;;;;29.91;32.31;101898.75;5042170;28;20079;-70
2022/09/05 00:54:26;;;;;;;6.60;4.68;;;;;;;29.81;31.67;101905.75;5053055;28;20025;-70
2022/09/05 00:57:15;;;;;;;9.90;5.30;;;;;;;29.70;32.15;101903.03;5055151;28;20033;-70
2022/09/05 01:00:04;;;;;;;7.15;4.97;;;;;;;29.74;32.03;101909.91;5039355;28;20075;-70
2022/09/05 01:02:30;;;;;;;6.43;5.30;;;;;;;29.28;32.70;101904.25;5049563;28;20117;-70
2022/09/05 01:05:15;;;;;;;10.35;5.35;;;;;;;29.56;32.28;101896.81;5035362;28;20075;-70
2022/09/05 01:07:49;;;;;;;7.18;5.82;;;;;;;29.59;32.75;101898.44;5044182;28;20025;-70
2022/09/05 01:10:18;;;;;;;7.93;5.40;;;;;;;29.55;32.37;101905.91;5057284;28;20109;-70
2022/09/05 01:13:15;;;;;;;8.07;6.07;;;;;;;29.59;32.79;101902.00;5068505;28;20812;-70
2022/09/05 01:16:04;;;;;;;6.40;5.38;;;;;;;29.50;32.86;101907.19;5052400;28;20021;-70
2022/09/05 01:18:38;;;;;;;7.47;6.03;;;;;;;29.36;33.01;101900.13;5053064;28;20025;-70
2022/09/05 01:21:19;;;;;;;8.93;5.55;;;;;;;29.36;32.76;101902.81;5052746;28;20493;-70
2022/09/05 01:23:44;;;;;;;7.78;6.47;;;;;;;29.40;32.85;101907.00;5052587;28;20056;-69
2022/09/05 01:26:35;;;;;;;8.88;5.93;;;;;;;29.28;33.86;101896.16;5048894;28;20032;-70
2022/09/05 01:29:04;;;;;;;7.78;5.43;;;;;;;29.18;33.40;101900.50;5054931;28;20028;-70
2022/09/05 01:31:51;;;;;;;9.63;5.90;;;;;;;29.17;33.48;101900.56;5056545;28;20558;-70
2022/09/05 01:34:16;;;;;;;9.43;5.85;;;;;;;29.49;32.68;101900.94;5034445;28;20029;-70
2022/09/05 01:37:03;;;;;;;10.02;6.43;;;;;;;29.44;32.86;101903.13;5055889;28;20033;-70
2022/09/05 01:39:39;;;;;;;10.67;6.27;;;;;;;29.34;33.15;101896.69;5053640;28;20039;-70
2022/09/05 01:42:28;;;;;;;7.28;5.75;;;;;;;29.27;33.29;101901.66;5060181;28;20025;-70
2022/09/05 01:45:14;;;;;;;9.48;5.65;;;;;;;29.32;33.62;101904.00;5039799;28;20125;-70
2022/09/05 01:47:56;;;;;;;7.75;5.85;;;;;;;29.31;32.97;101894.25;5057638;28;20145;-70
2022/09/05 01:50:42;;;;;;;8.73;6.43;;;;;;;29.13;33.75;101899.94;5052417;28;20025;-70
2022/09/05 01:53:20;;;;;;;11.63;6.70;;;;;;;28.81;33.89;101892.38;5065873;28;20025;-70
2022/09/05 01:56:14;;;;;;;9.73;6.47;;;;;;;29.08;33.30;101894.03;5052828;28;20416;-70
2022/09/05 01:59:13;;;;;;;10.18;6.47;;;;;;;29.14;33.38;101890.91;5052294;28;20024;-70
2022/09/05 02:02:16;;;;;;;7.93;6.10;;;;;;;29.21;33.40;101894.88;5058023;28;20029;-71
2022/09/05 02:05:03;;;;;;;10.27;6.82;;;;;;;29.36;33.42;101889.34;5054460;28;20480;-70
2022/09/05 02:07:34;;;;;;;7.10;6.13;;;;;;;29.18;33.67;101895.09;5059761;28;20400;-70
2022/09/05 02:10:05;;;;;;;10.02;6.45;;;;;;;29.36;32.97;101894.75;5053207;28;20029;-70
2022/09/05 02:12:43;;;;;;;7.93;6.30;;;;;;;29.41;33.05;101895.25;5060398;28;20046;-70
2022/09/05 02:15:24;;;;;;;9.80;6.63;;;;;;;29.30;33.33;101885.28;5069278;28;20399;-70
2022/09/05 02:18:01;;;;;;;11.45;7.25;;;;;;;29.31;33.81;101899.63;5068907;28;20032;-70
2022/09/05 02:20:41;;;;;;;12.63;7.15;;;;;;;29.23;33.40;101898.28;5060576;28;20052;-70
2022/09/05 02:23:14;;;;;;;11.98;6.20;;;;;;;29.04;33.89;101892.53;5051948;28;20039;-71
2022/09/05 02:25:49;;;;;;;9.93;7.20;;;;;;;28.82;34.06;101894.06;5051107;28;20024;-70
2022/09/05 02:28:51;;;;;;;10.05;7.07;;;;;;;28.78;33.86;101895.25;5052034;28;20033;-70
2022/09/05 02:31:28;;;;;;;10.03;6.67;;;;;;;28.94;33.76;101890.50;5056138;28;20025;-70
2022/09/05 02:34:07;;;;;;;9.98;6.90;;;;;;;29.00;33.71;101896.41;5064172;28;20041;-70
2022/09/05 02:36:47;;;;;;;11.98;7.38;;;;;;;29.07;33.81;101887.81;5058301;28;20020;-70
2022/09/05 02:39:19;;;;;;;11.80;7.60;;;;;;;29.05;33.56;101891.56;5050841;28;20032;-70
2022/09/05 02:41:51;;;;;;;8.27;7.03;;;;;;;28.77;34.60;101893.56;5049495;28;20036;-70
2022/09/05 02:44:39;;;;;;;13.73;7.82;;;;;;;28.89;34.00;101895.38;5051276;28;20048;-70
2022/09/05 02:47:36;;;;;;;11.90;7.57;;;;;;;28.77;34.66;101893.56;5056962;28;20052;-70
2022/09/05 02:50:35;;;;;;;8.60;7.32;;;;;;;28.66;34.08;101901.50;5075560;28;20028;-70
2022/09/05 02:53:02;;;;;;;16.08;7.68;;;;;;;28.63;34.35;101899.88;5071391;28;20093;-70
2022/09/05 02:55:42;;;;;;;11.23;8.70;;;;;;;28.45;34.77;101899.31;5088768;28;20601;-70
2022/09/05 02:58:23;;;;;;;11.52;8.07;;;;;;;28.69;34.29;101898.63;5053487;28;20090;-70
2022/09/05 03:01:18;;;;;;;10.68;8.32;;;;;;;28.76;34.03;101899.91;5089067;28;20063;-70
2022/09/05 03:04:02;;;;;;;11.85;8.05;;;;;;;28.79;34.19;101901.50;5086446;28;20048;-70
2022/09/05 03:06:40;;;;;;;13.48;8.55;;;;;;;28.74;34.71;101899.13;5082975;28;20535;-72
2022/09/05 03:09:28;;;;;;;14.18;8.70;;;;;;;28.53;34.50;101891.56;5053453;28;20032;-70
2022/09/05 03:12:39;;;;;;;11.80;8.73;;;;;;;28.66;34.56;101893.44;5054610;28;20164;-70
2022/09/05 03:15:42;;;;;;;11.82;8.88;;;;;;;28.67;34.53;101896.00;5014321;28;20105;-70
2022/09/05 03:18:26;;;;;;;9.60;7.85;;;;;;;28.42;35.00;101895.00;5058353;28;20028;-70
2022/09/05 03:21:08;;;;;;;13.05;8.65;;;;;;;28.65;34.49;101889.88;5056491;28;20032;-70
2022/09/05 03:23:42;;;;;;;13.75;9.68;;;;;;;28.43;34.86;101885.13;5056761;28;20031;-70
2022/09/05 03:26:35;;;;;;;16.42;8.95;;;;;;;28.47;34.80;101885.75;5079380;28;20035;-70
2022/09/05 03:29:28;;;;;;;14.55;9.15;;;;;;;28.63;34.47;101896.31;5057558;28;20115;-70
2022/09/05 03:32:08;;;;;;;14.25;8.65;;;;;;;28.34;35.07;101894.66;5089475;28;20059;-70
2022/09/05 03:35:03;;;;;;;12.65;9.63;;;;;;;28.44;34.86;101893.06;5068316;28;20411;-70
2022/09/05 03:37:49;;;;;;;16.52;9.65;;;;;;;28.45;34.66;101896.63;5081928;28;20446;-70
2022/09/05 03:40:35;;;;;;;17.67;9.23;;;;;;;28.26;34.98;101894.34;5073871;28;20020;-70
2022/09/05 03:43:33;;;;;;;14.90;9.95;;;;;;;28.16;35.64;101891.41;5086057;28;20601;-70
2022/09/05 03:46:25;;;;;;;12.18;9.85;;;;;;;28.47;35.16;101881.25;5060199;28;20423;-70
2022/09/05 03:49:23;;;;;;;14.40;9.93;;;;;;;28.17;35.42;101884.25;5077005;28;20020;-70
2022/09/05 03:52:19;;;;;;;14.48;10.27;;;;;;;28.44;35.24;101886.84;5083905;28;20024;-70
2022/09/05 03:54:57;;;;;;;15.57;11.07;;;;;;;28.39;34.94;101889.00;5064127;28;20027;-70
2022/09/05 03:57:37;;;;;;;13.40;9.48;;;;;;;28.16;35.26;101883.34;5088010;28;20233;-70
2022/09/05 04:00:08;;;;;;;16.77;11.05;;;;;;;27.86;35.85;101895.22;5072529;28;20070;-70
2022/09/05 04:02:59;;;;;;;17.13;10.85;;;;;;;28.35;35.04;101893.72;5078641;28;20043;-69
2022/09/05 04:05:29;;;;;;;17.05;11.07;;;;;;;28.31;34.85;101891.34;5072583;28;20128;-70
2022/09/05 04:08:23;;;;;;;18.65;11.52;;;;;;;28.34;35.09;101891.13;5085552;28;20110;-70
2022/09/05 04:11:07;;;;;;;18.40;11.05;;;;;;;28.15;35.62;101892.41;5064131;28;20040;-70
2022/09/05 04:13:35;;;;;;;14.02;10.50;;;;;;;28.23;35.22;101892.75;5079203;28;20498;-70
2022/09/05 04:16:23;;;;;;;17.55;11.60;;;;;;;28.45;34.71;101896.63;5077410;28;20032;-70
2022/09/05 04:19:04;;;;;;;12.45;10.15;;;;;;;28.07;35.70;101897.44;5070337;28;20094;-70
2022/09/05 04:21:35;;;;;;;15.88;11.27;;;;;;;28.44;35.11;101897.59;5053935;28;20838;-70
2022/09/05 04:24:06;;;;;;;18.13;12.32;;;;;;;28.12;35.56;101891.75;5059591;28;20032;-70
2022/09/05 04:26:51;;;;;;;17.17;11.90;;;;;;;28.07;35.68;101895.59;5056541;28;20400;-70
2022/09/05 04:29:22;;;;;;;14.80;11.60;;;;;;;28.13;35.88;101893.47;5093994;28;20051;-70
2022/09/05 04:32:15;;;;;;;16.70;12.13;;;;;;;28.23;35.82;101882.00;5081789;28;20075;-70
2022/09/05 04:35:29;;;;;;;17.85;11.45;;;;;;;28.08;36.04;101891.06;5074558;28;20071;-70
2022/09/05 04:38:09;;;;;;;15.27;11.48;;;;;;;27.91;35.91;101889.50;5008702;28;20380;-70
2022/09/05 04:40:57;;;;;;;19.02;11.55;;;;;;;28.22;35.10;101882.94;5073014;28;20078;-70
2022/09/05 04:43:54;;;;;;;17.52;11.98;;;;;;;28.07;35.90;101878.63;5074158;28;20063;-70
2022/09/05 04:46:28;;;;;;;14.88;10.93;;;;;;;28.32;35.35;101887.69;5023506;28;20078;-70
2022/09/05 04:49:15;;;;;;;16.92;10.95;;;;;;;27.91;35.72;101890.34;5067660;28;20042;-70
2022/09/05 04:52:09;;;;;;;19.95;11.95;;;;;;;28.10;35.58;101889.16;5035947;28;20166;-70
2022/09/05 04:54:47;;;;;;;16.33;11.05;;;;;;;28.14;35.83;101890.69;5056671;28;20062;-70
2022/09/05 04:57:29;;;;;;;15.98;11.50;;;;;;;28.14;35.76;101896.06;5066363;28;20039;-70
2022/09/05 05:00:04;;;;;;;16.77;11.80;;;;;;;27.98;35.92;101895.34;5053344;28;20029;-71
2022/09/05 05:02:37;;;;;;;12.48;9.98;;;;;;;27.87;36.09;101904.13;5040196;28;20111;-70
2022/09/05 05:05:09;;;;;;;15.35;11.70;;;;;;;27.75;36.17;101903.09;5035542;28;20017;-70
2022/09/05 05:08:00;;;;;;;17.10;12.20;;;;;;;27.74;36.62;101909.44;5054896;28;20048;-70
2022/09/05 05:10:41;;;;;;;17.80;11.13;;;;;;;27.75;36.22;101916.53;5037388;28;20067;-70
2022/09/05 05:13:17;;;;;;;19.13;12.25;;;;;;;28.10;35.47;101922.25;5054113;28;20032;-70
2022/09/05 05:15:52;;;;;;;16.55;10.82;;;;;;;27.71;36.56;101915.00;5066697;28;20040;-70
2022/09/05 05:18:26;;;;;;;17.38;12.60;;;;;;;28.02;35.96;101918.38;5034587;28;20037;-70
2022/09/05 05:20:54;;;;;;;18.67;12.10;;;;;;;27.85;36.44;101906.03;5054821;28;20060;-70
2022/09/05 05:23:32;;;;;;;17.45;10.85;;;;;;;27.83;36.21;101919.56;5057481;28;20039;-71
2022/09/05 05:26:01;;;;;;;14.45;10.23;;;;;;;27.82;36.46;101907.13;5066951;28;20056;-70
2022/09/05 05:28:43;;;;;;;20.45;12.00;;;;;;;27.64;36.77;101905.63;5065644;28;20506;-70
2022/09/05 05:31:21;;;;;;;16.65;12.23;;;;;;;28.10;35.84;101905.28;5068645;28;20033;-71
2022/09/05 05:33:49;;;;;;;14.32;11.80;;;;;;;27.93;36.18;101918.00;5069336;28;20063;-70
2022/09/05 05:36:23;;;;;;;17.42;11.57;;;;;;;28.03;36.26;101917.41;5052801;28;20054;-71
2022/09/05 05:38:55;;;;;;;16.92;11.73;;;;;;;27.52;37.01;101916.22;5058896;28;20063;-70
2022/09/05 05:41:44;;;;;;;14.63;11.57;;;;;;;27.99;36.18;101915.88;5039166;28;20492;-70
2022/09/05 05:44:19;;;;;;;19.92;11.73;;;;;;;28.01;36.21;101917.50;5062232;28;20029;-71
2022/09/05 05:46:57;;;;;;;16.13;11.32;;;;;;;28.04;36.36;101911.06;5049513;28;20036;-70
2022/09/05 05:49:49;;;;;;;14.82;11.52;;;;;;;28.12;36.22;101915.94;5072243;28;20029;-71
2022/09/05 05:52:35;;;;;;;13.57;11.38;;;;;;;28.15;35.95;101915.72;5079129;28;20028;-71
2022/09/05 05:55:48;;;;;;;12.85;10.38;;;;;;;28.20;35.90;101910.91;5073369;28;20043;-70
2022/09/05 05:58:14;;;;;;;18.02;12.18;;;;;;;28.32;35.79;101928.03;5077543;28;20036;-70
2022/09/05 06:00:59;;;;;;;21.10;13.25;;;;;;;28.51;35.74;101925.78;5053858;28;20094;-70
2022/09/05 06:03:52;;;;;;;17.70;10.77;;;;;;;28.57;35.64;101925.34;5067496;28;20040;-70
2022/09/05 06:06:55;;;;;;;18.17;11.30;;;;;;;28.29;36.18;101925.53;5072115;28;20025;-70
2022/09/05 06:09:58;;;;;;;16.73;12.57;;;;;;;28.67;35.54;101935.50;5082586;28;20067;-70
2022/09/05 06:12:35;;;;;;;;;;;;;;;28.79;35.63;101933.78;5075880;28;20036;-70
2022/09/05 06:15:13;;;;;;;17.92;13.35;;;;;;;28.96;35.08;101940.66;5091840;28;20387;-70
2022/09/05 06:18:16;;;;;;;18.95;12.30;;;;;;;28.94;35.44;101938.94;5092070;28;20544;-70
2022/09/05 06:21:09;;;;;;;16.92;12.63;;;;;;;29.03;35.70;101947.31;5053994;28;20110;-70
2022/09/05 06:24:09;;;;;;;14.27;9.63;;;;;;;29.34;35.26;101937.09;5082436;28;20396;-70
2022/09/05 06:26:48;;;;;;;19.35;12.90;;;;;;;29.40;34.61;101931.22;5061006;28;20031;-70
2022/09/05 06:29:35;;;;;;;17.70;12.00;;;;;;;29.76;34.27;101937.59;5074225;28;20028;-70
2022/09/05 06:32:03;;;;;;;17.30;12.18;;;;;;;29.99;34.52;101935.03;5083536;28;20070;-70
2022/09/05 06:34:44;;;;;;;15.85;12.65;;;;;;;29.52;35.46;101933.03;5076003;28;20046;-69
2022/09/05 06:37:30;;;;;;;18.58;10.98;;;;;;;30.07;33.93;101938.00;5074167;28;20158;-70
2022/09/05 06:40:24;;;;;;;18.13;12.13;;;;;;;29.62;35.04;101933.19;5062066;28;20615;-70
2022/09/05 06:43:08;;;;;;;19.35;11.85;;;;;;;30.24;33.78;101945.66;5069158;28;20051;-70
2022/09/05 06:46:04;;;;;;;19.02;12.50;;;;;;;29.69;34.73;101944.38;5092980;28;20048;-70
2022/09/05 06:48:41;;;;;;;19.40;12.32;;;;;;;30.21;34.54;101945.91;5080187;28;20032;-70
2022/09/05 06:51:22;;;;;;;16.33;12.13;;;;;;;30.53;33.79;101942.59;5058314;28;20515;-70
2022/09/05 06:54:01;;;;;;;16.90;11.32;;;;;;;30.59;33.95;101944.78;5044382;28;20032;-70
2022/09/05 06:56:48;;;;;;;20.17;11.02;;;;;;;30.93;33.24;101944.00;5033704;28;20032;-70
2022/09/05 06:59:50;;;;;;;17.13;11.38;;;;;;;30.62;33.93;101943.69;5054534;28;20037;-70
2022/09/05 07:02:40;;;;;;;18.85;11.60;;;;;;;31.14;32.78;101954.94;5062633;28;20085;-71
2022/09/05 07:05:17;;;;;;;15.10;10.15;;;;;;;30.85;33.25;101955.38;5046195;28;20040;-71
2022/09/05 07:07:46;;;;;;;15.15;10.68;;;;;;;31.11;33.29;101955.19;5041781;28;20059;-70
2022/09/05 07:10:20;;;;;;;15.02;9.35;;;;;;;31.34;32.95;101958.72;5031812;28;20024;-71
2022/09/05 07:12:52;;;;;;;13.63;10.32;;;;;;;31.19;32.80;101958.13;5055653;28;20533;-70
2022/09/05 07:15:38;;;;;;;20.90;10.35;;;;;;;31.61;32.44;101963.75;5058074;28;20476;-70
2022/09/05 07:18:20;;;;;;;12.10;10.20;;;;;;;31.54;32.44;101964.34;5042320;28;20054;-70
2022/09/05 07:21:01;;;;;;;14.10;10.50;;;;;;;31.31;33.31;101964.34;5059163;28;20029;-70
2022/09/05 07:23:39;;;;;;;15.43;10.23;;;;;;;31.93;31.99;101968.31;5039833;28;20035;-70
2022/09/05 07:26:08;;;;;;;14.38;9.80;;;;;;;31.76;31.93;101968.88;5051028;28;20099;-71
2022/09/05 07:28:35;;;;;;;18.40;9.85;;;;;;;32.92;30.97;101970.78;5051065;28;20040;-70
2022/09/05 07:31:29;;;;;;;10.13;8.90;;;;;;;34.84;29.34;101975.03;5035471;28;20025;-71
2022/09/05 07:34:09;;;;;;;15.10;8.73;;;;;;;36.73;27.07;101975.34;5048048;28;20497;-71
2022/09/05 07:36:44;;;;;;;11.63;8.77;;;;;;;37.50;25.36;101989.00;5053940;28;20056;-70
2022/09/05 07:39:14;;;;;;;14.65;8.15;;;;;;;38.75;23.57;101979.91;5032786;28;20477;-71
2022/09/05 07:41:43;;;;;;;12.50;7.22;;;;;;;39.74;22.52;101990.44;5031867;28;20025;-70
2022/09/05 07:44:22;;;;;;;12.95;7.20;;;;;;;38.56;22.82;101992.88;5052474;28;20062;-71
2022/09/05 07:46:53;;;;;;;10.35;7.47;;;;;;;38.02;23.27;101986.06;5060056;28;20049;-70
2022/09/05 07:49:22;;;;;;;8.43;7.40;;;;;;;37.66;24.11;101996.34;5075206;28;20115;-71
2022/09/05 07:51:47;;;;;;;9.88;7.35;;;;;;;37.04;24.46;101985.72;5060686;28;20023;-71
2022/09/05 07:54:30;;;;;;;9.05;6.63;;;;;;;36.88;24.61;101987.34;5083640;28;20539;-71
2022/09/05 07:57:04;;;;;;;;;;;;;;;36.60;24.86;101992.94;5063838;28;20507;-70
2022/09/05 07:59:34;;;;;;;8.95;5.95;;;;;;;35.50;25.71;101997.63;5079895;28;20338;-70
2022/09/05 08:02:01;;;;;;;8.32;5.97;;;;;;;35.31;26.42;101994.03;5076211;28;20031;-70
2022/09/05 08:04:32;;;;;;;7.63;5.20;;;;;;;36.02;25.29;101990.75;5059153;28;20032;-70
2022/09/05 08:07:14;;;;;;;9.65;5.13;;;;;;;36.10;25.14;101994.38;5080479;28;20082;-70
2022/09/05 08:09:46;;;;;;;8.48;5.60;;;;;;;36.46;24.76;101985.34;5070764;28;20403;-70
2022/09/05 08:12:25;;;;;;;9.98;5.32;;;;;;;36.76;24.69;101988.63;5093061;28;20020;-70
2022/09/05 08:15:06;;;;;;;9.10;5.78;;;;;;;37.34;24.32;101987.94;5057059;28;20040;-70
2022/09/05 08:17:41;;;;;;;8.65;5.55;;;;;;;36.63;24.58;101995.34;5073927;28;20020;-70
2022/09/05 08:20:07;;;;;;;7.05;5.57;;;;;;;36.89;24.84;101999.97;5083778;28;20111;-70
2022/09/05 08:22:47;;;;;;;7.85;4.80;;;;;;;37.29;23.96;101993.03;5090394;28;20099;-71
2022/09/05 08:25:30;;;;;;;12.15;6.50;;;;;;;36.99;24.56;102000.69;5073726;28;20028;-70
2022/09/05 08:28:08;;;;;;;14.77;6.45;;;;;;;36.75;24.86;101993.19;5056432;28;20039;-71
2022/09/05 08:31:06;;;;;;;8.48;4.93;;;;;;;36.61;25.02;101997.34;5083760;28;20103;-71
2022/09/05 08:33:36;;;;;;;7.47;3.75;;;;;;;36.72;23.81;101998.13;5071626;28;20047;-70
2022/09/05 08:36:28;;;;;;;5.78;4.07;;;;;;;36.93;24.19;101995.91;5094500;28;20102;-71
2022/09/05 08:38:58;;;;;;;6.05;3.90;;;;;;;36.82;24.77;101988.00;5093853;28;20150;-71
2022/09/05 08:41:53;;;;;;;4.22;3.22;;;;;;;38.32;22.61;101991.88;5075199;28;20029;-70
2022/09/05 08:44:33;;;;;;;5.93;3.42;;;;;;;39.40;21.00;101989.72;5051370;28;20515;-71
2022/09/05 08:47:21;;;;;;;6.78;3.15;;;;;;;39.58;20.94;101994.91;5059405;28;20060;-71
2022/09/05 08:50:01;;;;;;;5.25;2.90;;;;;;;40.47;20.38;101996.34;5057718;28;20039;-72
2022/09/05 08:52:57;;;;;;;3.10;2.80;;;;;;;40.30;20.42;101980.06;5073163;28;20024;-72
2022/09/05 08:55:34;;;;;;;3.60;2.00;;;;;;;39.50;20.28;101981.28;5054196;28;20033;-71
2022/09/05 08:58:13;;;;;;;3.08;2.63;;;;;;;38.94;21.00;101981.34;5054011;28;20062;-71
2022/09/05 09:00:50;;;;;;;3.90;2.88;;;;;;;38.53;21.44;101976.84;5053332;28;20036;-71
2022/09/05 09:03:37;;;;;;;4.82;2.60;;;;;;;39.01;21.37;101980.50;5035470;28;20077;-71
2022/09/05 09:06:15;;;;;;;5.18;3.08;;;;;;;38.65;21.81;101986.38;5063831;28;20059;-71
2022/09/05 09:08:49;;;;;;;3.80;2.58;;;;;;;37.86;22.50;101975.13;5073793;28;20070;-71
2022/09/05 09:11:45;;;;;;;7.07;2.45;;;;;;;38.43;21.83;101981.63;5071435;28;20025;-71
2022/09/05 09:14:40;;;;;;;4.35;2.55;;;;;;;38.28;21.59;101979.59;5068749;28;20039;-71
2022/09/05 09:17:25;;;;;;;4.88;2.47;;;;;;;37.54;22.65;101971.28;5073640;28;20549;-71
2022/09/05 09:20:09;;;;;;;3.40;2.10;;;;;;;39.58;21.02;101964.84;5072842;28;20020;-71
2022/09/05 09:22:56;;;;;;;3.13;1.85;;;;;;;38.57;20.61;101961.81;5053776;28;20039;-71
2022/09/05 09:25:31;;;;;;;5.93;1.75;;;;;;;37.74;21.80;101966.38;5053042;28;20079;-71
2022/09/05 09:28:12;;;;;;;8.70;2.25;;;;;;;35.91;23.64;101968.19;5054213;28;20530;-71
2022/09/05 09:30:43;;;;;;;7.30;1.85;;;;;;;36.10;23.10;101963.63;5055897;28;20017;-71
2022/09/05 09:33:15;;;;;;;5.75;2.17;;;;;;;38.11;20.99;101953.31;5043756;28;20030;-71
2022/09/05 09:35:54;;;;;;;;;;;;;;;38.47;21.04;101955.69;5053791;28;20115;-71
2022/09/05 09:38:25;;;;;;;4.30;1.90;;;;;;;37.50;21.50;101959.88;5053538;28;20391;-70
2022/09/05 09:41:25;;;;;;;2.88;1.67;;;;;;;37.64;20.85;101955.63;5053058;28;20025;-71
2022/09/05 09:44:16;;;;;;;3.30;1.60;;;;;;;39.78;20.01;101950.72;5054330;28;20035;-71
2022/09/05 09:46:44;;;;;;;4.82;1.98;;;;;;;39.47;19.95;101955.16;5073214;28;20040;-71
2022/09/05 09:49:19;;;;;;;6.22;2.05;;;;;;;40.51;19.62;101953.88;5069837;28;20066;-71
2022/09/05 09:52:29;;;;;;;7.65;1.90;;;;;;;38.91;19.98;101952.53;5072058;28;20455;-71
2022/09/05 09:55:13;;;;;;;5.53;1.60;;;;;;;39.36;20.21;101950.09;5060703;28;20036;-71
2022/09/05 09:57:43;;;;;;;3.40;1.60;;;;;;;38.86;19.46;101949.47;5052423;28;20025;-71
2022/09/05 10:00:19;;;;;;;3.63;1.55;;;;;;;38.28;20.61;101952.31;5051913;28;20446;-71
2022/09/05 10:03:01;;;;;;;3.00;1.48;;;;;;;39.36;19.33;101948.25;5041329;28;20029;-71
2022/09/05 10:05:38;;;;;;;3.40;1.48;;;;;;;38.39;20.55;101947.50;5035335;28;20481;-71
2022/09/05 10:08:04;;;;;;;6.25;1.90;;;;;;;37.40;21.33;101950.13;5046562;28;20044;-70
2022/09/05 10:10:29;;;;;;;2.75;1.60;;;;;;;38.68;20.27;101936.03;5054485;28;20542;-71
2022/09/05 10:13:20;;;;;;;3.92;1.67;;;;;;;38.75;20.47;101944.41;5046775;28;21944;-70
2022/09/05 10:16:26;;;;;;;7.28;1.50;;;;;;;38.47;20.49;101933.84;5068116;28;20024;-71
2022/09/05 10:18:53;;;;;;;3.58;1.58;;;;;;;39.41;20.24;101933.19;5049025;28;20093;-71
2022/09/05 10:21:33;;;;;;;1.98;1.40;;;;;;;40.10;19.87;101924.16;5059952;28;20474;-71
2022/09/05 10:24:23;;;;;;;2.45;1.60;;;;;;;39.76;19.33;101922.69;5059885;28;20033;-71
2022/09/05 10:27:04;;;;;;;2.08;1.50;;;;;;;39.47;19.37;101918.78;5035951;28;20029;-71
2022/09/05 10:29:44;;;;;;;6.75;1.65;;;;;;;40.11;19.18;101926.69;5056440;28;20039;-71
2022/09/05 10:32:30;;;;;;;4.68;1.30;;;;;;;38.61;20.23;101913.16;5060059;28;20032;-70
2022/09/05 10:34:57;;;;;;;2.17;1.30;;;;;;;37.79;20.50;101920.41;5037404;28;20079;-70
2022/09/05 10:37:39;;;;;;;2.80;1.45;;;;;;;37.80;21.08;101915.81;5049667;28;20025;-71
2022/09/05 10:40:08;;;;;;;1.80;1.27;;;;;;;38.98;19.45;101915.28;5052119;28;20032;-71
2022/09/05 10:42:42;;;;;;;2.63;1.35;;;;;;;37.45;21.23;101906.88;5067530;28;20579;-70
2022/09/05 10:46:01;;;;;;;2.53;1.38;;;;;;;37.95;20.67;101911.38;5046059;28;20025;-71
2022/09/05 10:48:50;;;;;;;3.67;1.40;;;;;;;37.99;20.51;101907.28;5033260;28;20025;-70
2022/09/05 10:51:21;;;;;;;4.13;1.50;;;;;;;38.16;20.62;101907.25;5051488;28;20095;-71
2022/09/05 10:53:46;;;;;;;4.53;1.65;;;;;;;37.51;21.19;101906.22;5034150;28;20025;-70
2022/09/05 10:56:16;;;;;;;5.18;1.65;;;;;;;36.57;22.10;101895.25;5045872;28;20054;-70
2022/09/05 10:58:58;;;;;;;9.25;2.17;;;;;;;38.28;20.83;101897.72;5067323;28;20167;-70
2022/09/05 11:01:40;;;;;;;2.80;1.88;;;;;;;38.10;20.65;101894.28;5063469;28;20027;-70
2022/09/05 11:04:30;;;;;;;3.33;1.33;;;;;;;38.78;20.71;101898.44;5051828;28;20033;-71
2022/09/05 11:07:33;;;;;;;3.75;1.52;;;;;;;39.68;19.91;101904.44;5057394;28;20043;-70
2022/09/05 11:10:30;;;;;;;2.88;1.90;;;;;;;38.06;20.50;101890.22;5024592;28;20053;-70
2022/09/05 11:13:10;;;;;;;2.05;1.40;;;;;;;40.17;19.00;101892.25;5041436;28;20492;-71
2022/09/05 11:16:00;;;;;;;4.03;1.40;;;;;;;38.12;20.28;101903.19;5063010;28;20119;-72
2022/09/05 11:18:32;;;;;;;2.47;1.30;;;;;;;39.65;18.45;101911.16;5066510;28;20044;-71
2022/09/05 11:21:09;;;;;;;1.85;1.30;;;;;;;40.15;18.60;101899.81;5069858;28;20036;-72
2022/09/05 11:23:44;;;;;;;8.18;1.50;;;;;;;39.94;18.52;101900.47;5056052;28;20548;-71
2022/09/05 11:26:39;;;;;;;2.83;1.40;;;;;;;41.09;17.91;101896.50;5033119;28;20024;-71
2022/09/05 11:29:09;;;;;;;3.75;1.77;;;;;;;40.53;17.76;101897.00;5052080;28;20047;-71
2022/09/05 11:32:00;;;;;;;4.68;1.42;;;;;;;41.37;16.90;101895.75;5069443;28;20074;-71
2022/09/05 11:34:48;;;;;;;5.60;1.58;;;;;;;40.66;17.53;101886.25;5051511;28;20082;-71
2022/09/05 11:37:39;;;;;;;3.80;1.75;;;;;;;40.68;17.12;101889.66;5059720;28;20035;-71
2022/09/05 11:40:30;;;;;;;4.18;1.70;;;;;;;41.03;17.31;101884.41;5073070;28;20035;-70
2022/09/05 11:43:23;;;;;;;4.32;1.45;;;;;;;40.67;17.89;101882.47;5071644;28;20118;-71
2022/09/05 11:46:16;;;;;;;3.38;1.35;;;;;;;40.69;17.54;101885.84;5055367;28;20059;-70
2022/09/05 11:49:17;;;;;;;6.68;1.63;;;;;;;41.54;16.80;101885.41;5059307;28;20028;-71
2022/09/05 11:51:55;;;;;;;3.42;1.27;;;;;;;41.33;16.47;101870.63;5035711;28;20439;-71
2022/09/05 11:54:32;;;;;;;4.63;1.50;;;;;;;42.57;15.97;101887.69;5058400;28;20508;-71
2022/09/05 11:57:05;;;;;;;7.78;1.40;;;;;;;41.26;16.00;101886.16;5084750;28;20532;-71
2022/09/05 11:59:51;;;;;;;4.60;1.33;;;;;;;41.98;16.13;101884.31;5085232;28;20042;-70
2022/09/05 12:02:36;;;;;;;3.78;1.50;;;;;;;43.02;15.20;101884.47;5076031;28;20032;-71
2022/09/05 12:05:33;;;;;;;3.60;1.60;;;;;;;43.61;14.45;101882.09;5075188;28;20024;-71
2022/09/05 12:08:05;;;;;;;5.45;1.23;;;;;;;43.68;14.78;101881.06;5074839;28;20054;-71
2022/09/05 12:10:35;;;;;;;6.30;1.10;;;;;;;41.49;15.69;101890.63;5091447;28;20028;-70
2022/09/05 12:13:41;;;;;;;6.00;1.20;;;;;;;41.46;15.90;101863.59;5082606;28;20373;-71
2022/09/05 12:16:48;;;;;;;3.53;1.73;;;;;;;43.72;15.12;101875.97;5059374;28;20476;-70
2022/09/05 12:19:37;;;;;;;4.47;1.23;;;;;;;43.93;13.78;101869.44;5046668;28;20037;-71
2022/09/05 12:22:27;;;;;;;9.32;1.20;;;;;;;42.76;14.90;101866.00;5068524;28;20480;-71
2022/09/05 12:25:21;;;;;;;5.03;1.15;;;;;;;42.13;15.16;101864.16;5062777;28;20061;-71
2022/09/05 12:27:58;;;;;;;5.25;1.40;;;;;;;43.50;14.68;101858.81;5078800;28;20028;-70